createdAt,value
2022-11-06T00:01:37.816Z,152403.09
2022-11-06T00:04:08.371Z,152412.09
2022-11-06T00:06:51.001Z,152410.81
2022-11-06T00:09:23.573Z,152412.09
2022-11-06T00:11:53.918Z,152409.53
2022-11-06T00:14:24.033Z,152405.66
2022-11-06T00:16:56.664Z,152412.09
2022-11-06T00:19:26.755Z,152399.22
2022-11-06T00:21:56.948Z,152425.03
2022-11-06T00:24:27.238Z,152413.44
2022-11-06T00:26:57.394Z,152404.38
2022-11-06T00:29:27.807Z,152405.66
2022-11-06T00:32:00.478Z,152401.75
2022-11-06T00:34:30.679Z,152440.56
2022-11-06T00:37:00.792Z,152419.88
2022-11-06T00:39:30.854Z,152413.44
2022-11-06T00:42:00.992Z,152434.09
2022-11-06T00:44:30.999Z,152422.47
2022-11-06T00:47:04.405Z,152426.31
2022-11-06T00:49:34.529Z,152410.81
2022-11-06T00:52:04.974Z,152416.00
2022-11-06T00:54:35.131Z,152403.09
2022-11-06T00:57:05.424Z,152412.09
2022-11-06T00:59:36.250Z,152414.72
2022-11-06T01:02:09.159Z,152427.66
2022-11-06T01:04:39.430Z,152417.31
2022-11-06T01:07:09.487Z,152412.09
2022-11-06T01:09:39.609Z,152410.81
2022-11-06T01:12:13.249Z,152409.53
2022-11-06T01:14:44.789Z,152414.72
2022-11-06T01:17:17.705Z,152416.00
2022-11-06T01:19:47.810Z,152406.94
2022-11-06T01:22:18.087Z,152418.59
2022-11-06T01:24:48.293Z,152409.53
2022-11-06T01:27:27.055Z,152409.53
2022-11-06T01:29:57.948Z,152399.22
2022-11-06T01:32:33.080Z,152396.59
2022-11-06T01:35:03.304Z,152399.22
2022-11-06T01:37:33.335Z,152409.53
2022-11-06T01:40:05.036Z,152409.53
2022-11-06T01:42:35.107Z,152400.47
2022-11-06T01:45:32.713Z,152391.44
2022-11-06T01:48:06.579Z,152396.59
2022-11-06T01:50:36.619Z,152410.81
2022-11-06T01:53:07.826Z,152390.16
2022-11-06T01:55:41.309Z,152397.94
2022-11-06T01:58:15.200Z,152390.16
2022-11-06T02:00:47.064Z,152403.09
2022-11-06T02:03:20.520Z,152387.53
2022-11-06T02:05:51.602Z,152401.75
2022-11-06T02:08:24.609Z,152408.25
2022-11-06T02:10:56.120Z,152395.31
2022-11-06T02:13:46.438Z,152388.88
2022-11-06T02:16:24.473Z,152379.81
2022-11-06T02:19:13.431Z,152381.09
2022-11-06T02:22:24.349Z,152404.38
2022-11-06T02:25:27.226Z,152404.38
2022-11-06T02:28:05.176Z,152404.38
2022-11-06T02:30:40.089Z,152413.44
2022-11-06T02:33:15.128Z,152399.22
2022-11-06T02:35:50.632Z,152391.44
2022-11-06T02:38:25.227Z,152401.75
2022-11-06T02:40:58.163Z,152386.25
2022-11-06T02:43:35.776Z,152383.69
2022-11-06T02:46:11.481Z,152396.59
2022-11-06T02:48:46.671Z,152383.69
2022-11-06T02:51:21.658Z,152368.22
2022-11-06T02:53:52.611Z,152383.69
2022-11-06T02:56:27.403Z,152382.38
2022-11-06T02:59:04.233Z,152387.53
2022-11-06T03:01:37.860Z,152386.25
2022-11-06T03:04:13.288Z,152375.94
2022-11-06T03:06:48.394Z,152381.09
2022-11-06T03:09:22.675Z,152368.22
2022-11-06T03:12:00.462Z,152360.44
2022-11-06T03:14:38.657Z,152363.03
2022-11-06T03:17:18.987Z,152368.22
2022-11-06T03:19:55.298Z,152361.72
2022-11-06T03:22:31.283Z,152363.03
2022-11-06T03:25:05.429Z,152356.53
2022-11-06T03:27:39.924Z,152360.44
2022-11-06T03:30:17.092Z,152356.53
2022-11-06T03:32:52.307Z,152360.44
2022-11-06T03:35:28.255Z,152375.94
2022-11-06T03:38:04.775Z,152369.47
2022-11-06T03:40:39.735Z,152383.69
2022-11-06T03:43:13.339Z,152378.53
2022-11-06T03:45:50.247Z,152374.66
2022-11-06T03:48:26.899Z,152368.22
2022-11-06T03:51:01.766Z,152369.47
2022-11-06T03:53:35.049Z,152372.03
2022-11-06T03:56:10.371Z,152375.94
2022-11-06T03:58:43.664Z,152374.66
2022-11-06T04:01:18.303Z,152369.47
2022-11-06T04:03:53.790Z,152364.31
2022-11-06T04:06:29.135Z,152368.22
2022-11-06T04:09:16.906Z,152359.16
2022-11-06T04:12:01.171Z,152372.03
2022-11-06T04:14:34.466Z,152368.22
2022-11-06T04:17:10.071Z,152370.75
2022-11-06T04:19:40.364Z,152369.47
2022-11-06T04:22:28.496Z,152375.94
2022-11-06T04:25:21.595Z,152372.03
2022-11-06T04:28:17.995Z,152369.47
2022-11-06T04:30:59.717Z,152375.94
2022-11-06T04:33:38.911Z,152381.09
2022-11-06T04:36:19.516Z,152364.31
2022-11-06T04:38:58.705Z,152363.03
2022-11-06T04:41:37.297Z,152365.59
2022-11-06T04:44:13.074Z,152377.22
2022-11-06T04:46:48.408Z,152365.59
2022-11-06T04:49:23.504Z,152359.16
2022-11-06T04:51:54.284Z,152364.31
2022-11-06T04:54:24.916Z,152378.53
2022-11-06T04:56:54.928Z,152375.94
2022-11-06T04:59:25.217Z,152383.69
2022-11-06T05:01:55.447Z,152378.53
2022-11-06T05:04:28.727Z,152386.25
2022-11-06T05:06:58.763Z,152377.22
2022-11-06T05:09:28.980Z,152374.66
2022-11-06T05:11:59.064Z,152381.09
2022-11-06T05:14:30.284Z,152374.66
2022-11-06T05:17:01.116Z,152381.09
2022-11-06T05:19:35.266Z,152390.16
2022-11-06T05:22:17.668Z,152381.09
2022-11-06T05:24:47.685Z,152374.66
2022-11-06T05:27:18.052Z,152360.44
2022-11-06T05:29:48.184Z,152370.75
2022-11-06T05:32:18.575Z,152368.22
2022-11-06T05:34:51.624Z,152365.59
2022-11-06T05:37:22.025Z,152377.22
2022-11-06T05:39:52.081Z,152375.94
2022-11-06T05:42:22.279Z,152375.94
2022-11-06T05:44:52.385Z,152375.94
2022-11-06T05:47:22.846Z,152375.94
2022-11-06T05:49:55.992Z,152375.94
2022-11-06T05:52:26.112Z,152383.69
2022-11-06T05:54:56.168Z,152390.16
2022-11-06T05:57:26.302Z,152366.88
2022-11-06T05:59:56.616Z,152386.25
2022-11-06T06:02:26.967Z,152394.03
2022-11-06T06:04:59.732Z,152369.47
2022-11-06T06:07:29.840Z,152363.03
2022-11-06T06:09:59.924Z,152382.38
2022-11-06T06:12:30.110Z,152382.38
2022-11-06T06:15:00.149Z,152381.09
2022-11-06T06:17:30.866Z,152381.09
2022-11-06T06:20:03.495Z,152372.03
2022-11-06T06:22:33.716Z,152390.16
2022-11-06T06:25:03.901Z,152374.66
2022-11-06T06:27:34.011Z,152400.47
2022-11-06T06:30:04.143Z,152383.69
2022-11-06T06:32:34.158Z,152384.97
2022-11-06T06:35:07.897Z,152397.94
2022-11-06T06:37:38.177Z,152383.69
2022-11-06T06:40:10.447Z,152388.88
2022-11-06T06:42:40.511Z,152399.22
2022-11-06T06:45:11.210Z,152384.97
2022-11-06T06:47:41.370Z,152381.09
2022-11-06T06:50:14.573Z,152382.38
2022-11-06T06:52:44.649Z,152378.53
2022-11-06T06:55:14.905Z,152384.97
2022-11-06T06:57:44.982Z,152383.69
2022-11-06T07:00:17.077Z,152390.16
2022-11-06T07:02:47.112Z,152392.75
2022-11-06T07:05:22.664Z,152390.16
2022-11-06T07:07:52.828Z,152400.47
2022-11-06T07:10:23.539Z,152400.47
2022-11-06T07:12:54.147Z,152408.25
2022-11-06T07:15:24.923Z,152399.22
2022-11-06T07:17:55.289Z,152417.31
2022-11-06T07:20:28.073Z,152405.66
2022-11-06T07:22:58.398Z,152413.44
2022-11-06T07:25:28.783Z,152413.44
2022-11-06T07:28:03.079Z,152412.09
2022-11-06T07:30:34.197Z,152403.09
2022-11-06T07:33:05.053Z,152413.44
2022-11-06T07:35:38.274Z,152423.75
2022-11-06T07:38:09.188Z,152425.03
2022-11-06T07:40:40.010Z,152416.00
2022-11-06T07:43:11.620Z,152405.66
2022-11-06T07:45:44.895Z,152413.44
2022-11-06T07:48:15.307Z,152425.03
2022-11-06T07:50:48.288Z,152414.72
2022-11-06T07:53:18.465Z,152417.31
2022-11-06T07:55:52.090Z,152430.22
2022-11-06T07:58:22.680Z,152432.81
2022-11-06T08:00:57.389Z,152421.16
2022-11-06T08:03:30.747Z,152413.44
2022-11-06T08:06:06.367Z,152417.31
2022-11-06T08:08:36.459Z,152440.56
2022-11-06T08:11:07.488Z,152453.50
2022-11-06T08:13:38.327Z,152450.88
2022-11-06T08:16:10.208Z,152443.16
2022-11-06T08:18:40.409Z,152458.66
2022-11-06T08:21:14.015Z,152465.13
2022-11-06T08:23:44.186Z,152476.81
2022-11-06T08:26:15.166Z,152474.22
2022-11-06T08:28:45.497Z,152493.63
2022-11-06T08:31:15.833Z,152469.06
2022-11-06T08:33:46.151Z,152463.84
2022-11-06T08:36:19.283Z,152471.66
2022-11-06T08:38:50.881Z,152454.78
2022-11-06T08:41:22.238Z,152456.06
2022-11-06T08:43:54.842Z,152454.78
2022-11-06T08:46:24.978Z,152444.44
2022-11-06T08:48:55.019Z,152447.03
2022-11-06T08:51:27.674Z,152463.84
2022-11-06T08:53:59.282Z,152436.66
2022-11-06T08:56:29.576Z,152452.22
2022-11-06T08:58:59.755Z,152453.50
2022-11-06T09:01:30.053Z,152472.94
2022-11-06T09:04:01.077Z,152482.00
2022-11-06T09:06:35.226Z,152524.63
2022-11-06T09:09:05.500Z,152496.16
2022-11-06T09:11:36.414Z,152532.41
2022-11-06T09:14:06.628Z,152511.72
2022-11-06T09:16:36.896Z,152547.91
2022-11-06T09:19:06.963Z,152542.75
2022-11-06T09:21:40.893Z,152544.03
2022-11-06T09:24:11.416Z,152567.31
2022-11-06T09:26:41.451Z,152600.94
2022-11-06T09:29:11.499Z,152642.31
2022-11-06T09:31:43.257Z,152669.50
2022-11-06T09:34:14.744Z,152629.34
2022-11-06T09:36:47.454Z,152630.69
2022-11-06T09:39:17.992Z,152630.69
2022-11-06T09:41:56.942Z,152641.03
2022-11-06T09:44:42.141Z,152646.19
2022-11-06T09:47:19.027Z,152695.34
2022-11-06T09:49:53.564Z,152695.34
2022-11-06T09:52:33.694Z,152716.03
2022-11-06T09:55:08.824Z,152723.81
2022-11-06T09:57:42.816Z,152735.47
2022-11-06T10:00:16.971Z,152766.50
2022-11-06T10:02:51.795Z,152772.94
2022-11-06T10:05:28.503Z,152797.53
2022-11-06T10:08:04.661Z,152838.97
2022-11-06T10:10:42.226Z,152840.25
2022-11-06T10:13:40.614Z,152872.63
2022-11-06T10:16:18.426Z,152873.91
2022-11-06T10:18:59.280Z,152901.06
2022-11-06T10:21:40.285Z,152879.09
2022-11-06T10:24:24.316Z,152885.53
2022-11-06T10:26:57.624Z,152921.81
2022-11-06T10:30:00.420Z,152938.63
2022-11-06T10:33:11.314Z,152996.94
2022-11-06T10:35:46.982Z,152999.50
2022-11-06T10:38:18.966Z,153029.28
2022-11-06T10:40:53.914Z,153072.03
2022-11-06T10:43:30.532Z,153136.78
2022-11-06T10:46:09.595Z,153130.31
2022-11-06T10:48:43.704Z,153145.84
2022-11-06T10:51:32.504Z,153087.56
2022-11-06T10:54:16.544Z,153147.13
2022-11-06T10:56:56.174Z,153130.31
2022-11-06T10:59:26.790Z,153136.78
2022-11-06T11:01:57.814Z,153154.91
2022-11-06T11:04:28.044Z,153165.28
2022-11-06T11:06:58.506Z,153198.97
2022-11-06T11:09:34.269Z,153184.72
2022-11-06T11:12:07.515Z,153178.19
2022-11-06T11:14:37.819Z,153144.56
2022-11-06T11:17:11.187Z,153158.78
2022-11-06T11:19:44.247Z,153183.38
2022-11-06T11:22:22.601Z,153153.59
2022-11-06T11:25:04.629Z,153108.28
2022-11-06T11:27:41.255Z,153092.72
2022-11-06T11:30:25.280Z,153097.91
2022-11-06T11:32:59.300Z,153154.91
2022-11-06T11:35:32.022Z,153139.38
2022-11-06T11:38:11.984Z,153162.66
2022-11-06T11:40:43.427Z,153161.38
2022-11-06T11:43:27.053Z,153174.34
2022-11-06T11:46:15.836Z,153149.75
2022-11-06T11:48:48.770Z,153138.06
2022-11-06T11:51:32.756Z,153130.31
2022-11-06T11:54:08.563Z,153114.78
2022-11-06T11:57:04.175Z,153101.81
2022-11-06T11:59:45.751Z,153083.66
2022-11-06T12:02:25.360Z,153074.59
2022-11-06T12:05:01.868Z,153061.66
2022-11-06T12:07:34.756Z,153057.78
2022-11-06T12:10:18.176Z,153075.91
2022-11-06T12:12:53.132Z,153064.22
2022-11-06T12:15:38.420Z,153075.91
2022-11-06T12:18:13.531Z,153028.00
2022-11-06T12:20:47.068Z,153030.59
2022-11-06T12:23:22.452Z,153038.34
2022-11-06T12:26:02.570Z,153094.00
2022-11-06T12:28:38.153Z,153056.50
2022-11-06T12:31:38.807Z,153064.22
2022-11-06T12:34:17.675Z,153046.13
2022-11-06T12:36:53.739Z,153028.00
2022-11-06T12:39:30.998Z,153048.69
2022-11-06T12:42:01.702Z,153065.56
2022-11-06T12:44:31.931Z,153081.09
2022-11-06T12:47:11.802Z,153099.19
2022-11-06T12:50:07.761Z,153109.59
2022-11-06T12:52:52.528Z,153052.59
2022-11-06T12:55:30.714Z,153052.59
2022-11-06T12:58:14.620Z,153085.00
2022-11-06T13:00:58.788Z,153096.63
2022-11-06T13:03:46.732Z,153108.28
2022-11-06T13:06:26.191Z,153082.38
2022-11-06T13:09:03.566Z,153104.38
2022-11-06T13:11:43.818Z,153126.41
2022-11-06T13:14:24.210Z,153104.38
2022-11-06T13:17:03.792Z,153043.53
2022-11-06T13:19:47.100Z,153059.06
2022-11-06T13:22:28.130Z,153047.41
2022-11-06T13:25:05.721Z,153091.44
2022-11-06T13:27:42.395Z,153144.56
2022-11-06T13:30:19.756Z,153086.28
2022-11-06T13:32:56.856Z,153097.91
2022-11-06T13:35:30.523Z,153087.56
2022-11-06T13:38:00.868Z,153092.72
2022-11-06T13:40:36.482Z,153085.00
2022-11-06T13:43:14.094Z,153082.38
2022-11-06T13:45:52.419Z,153087.56
2022-11-06T13:48:37.399Z,153072.03
2022-11-06T13:51:19.668Z,153088.84
2022-11-06T13:53:59.917Z,153083.66
2022-11-06T13:57:12.196Z,153046.13
2022-11-06T14:00:09.320Z,153068.13
2022-11-06T14:03:02.340Z,153055.22
2022-11-06T14:05:50.300Z,153083.66
2022-11-06T14:08:28.554Z,153106.97
2022-11-06T14:11:02.926Z,153073.31
2022-11-06T14:13:36.502Z,153029.28
2022-11-06T14:16:09.914Z,153047.41
2022-11-06T14:18:40.359Z,153021.53
2022-11-06T14:21:49.479Z,153022.81
2022-11-06T14:24:47.780Z,153052.59
2022-11-06T14:27:53.631Z,153060.38
2022-11-06T14:31:11.500Z,153062.94
2022-11-06T14:34:05.406Z,153048.69
2022-11-06T14:36:39.624Z,153034.44
2022-11-06T14:39:16.569Z,153022.81
2022-11-06T14:42:01.624Z,153043.53
2022-11-06T14:44:42.980Z,153025.44
2022-11-06T14:47:38.714Z,153004.66
2022-11-06T14:50:26.545Z,152995.66
2022-11-06T14:53:01.210Z,152981.41
2022-11-06T14:55:35.153Z,152981.41
2022-11-06T14:58:24.397Z,152968.44
2022-11-06T15:00:59.909Z,152976.22
2022-11-06T15:03:37.503Z,152977.50
2022-11-06T15:06:37.635Z,152967.16
2022-11-06T15:09:09.567Z,152943.84
2022-11-06T15:12:03.115Z,152937.34
2022-11-06T15:15:02.543Z,152949.03
2022-11-06T15:17:41.989Z,152929.56
2022-11-06T15:20:26.005Z,152917.91
2022-11-06T15:23:02.593Z,152916.63
2022-11-06T15:25:36.923Z,152924.38
2022-11-06T15:28:15.342Z,152928.28
2022-11-06T15:30:53.796Z,152921.81
2022-11-06T15:33:31.301Z,152914.03
2022-11-06T15:36:08.516Z,152910.13
2022-11-06T15:38:43.452Z,152927.00
2022-11-06T15:41:18.115Z,152895.88
2022-11-06T15:43:49.789Z,152908.84
2022-11-06T15:46:26.363Z,152906.25
2022-11-06T15:49:21.725Z,152917.91
2022-11-06T15:51:57.541Z,152894.59
2022-11-06T15:54:36.132Z,152885.53
2022-11-06T15:57:19.648Z,152898.50
2022-11-06T15:59:51.067Z,152876.47
2022-11-06T16:02:25.475Z,152870.00
2022-11-06T16:04:55.827Z,152882.97
2022-11-06T16:07:26.697Z,152867.44
2022-11-06T16:09:57.187Z,152866.13
2022-11-06T16:12:27.437Z,152853.22
2022-11-06T16:14:57.687Z,152841.53
2022-11-06T16:17:31.150Z,152838.97
2022-11-06T16:20:05.343Z,152854.50
2022-11-06T16:22:37.079Z,152848.03
2022-11-06T16:25:10.627Z,152841.53
2022-11-06T16:27:43.157Z,152833.78
2022-11-06T16:30:25.555Z,152827.28
2022-11-06T16:33:00.003Z,152822.13
2022-11-06T16:35:34.637Z,152820.84
2022-11-06T16:38:42.100Z,152800.13
2022-11-06T16:41:36.615Z,152802.75
2022-11-06T16:44:31.670Z,152774.28
2022-11-06T16:47:17.240Z,152739.34
2022-11-06T16:49:54.252Z,152731.56
2022-11-06T16:52:29.581Z,152706.97
2022-11-06T16:55:04.623Z,152681.13
2022-11-06T16:57:39.621Z,152664.31
2022-11-06T17:00:25.761Z,152641.03
2022-11-06T17:03:01.759Z,152631.97
2022-11-06T17:05:37.313Z,152629.34
2022-11-06T17:08:24.002Z,152616.47
2022-11-06T17:10:56.136Z,152582.81
2022-11-06T17:13:29.066Z,152558.25
2022-11-06T17:16:01.443Z,152553.09
2022-11-06T17:18:36.449Z,152547.91
2022-11-06T17:21:10.977Z,152536.28
2022-11-06T17:23:41.476Z,152531.13
2022-11-06T17:26:18.038Z,152533.69
2022-11-06T17:28:48.256Z,152513.00
2022-11-06T17:31:19.888Z,152509.13
2022-11-06T17:33:53.065Z,152525.91
2022-11-06T17:36:28.226Z,152527.25
2022-11-06T17:38:59.751Z,152533.69
2022-11-06T17:41:32.708Z,152515.56
2022-11-06T17:44:04.769Z,152533.69
2022-11-06T17:46:38.366Z,152546.63
2022-11-06T17:49:11.681Z,152551.81
2022-11-06T17:52:01.618Z,152544.03
2022-11-06T17:54:33.612Z,152551.81
2022-11-06T17:57:05.765Z,152555.69
2022-11-06T17:59:36.507Z,152544.03
2022-11-06T18:02:07.604Z,152546.63
2022-11-06T18:04:37.797Z,152554.38
2022-11-06T18:07:13.131Z,152564.69
2022-11-06T18:09:43.294Z,152566.03
2022-11-06T18:12:17.815Z,152576.38
2022-11-06T18:14:47.815Z,152567.31
2022-11-06T18:17:18.191Z,152569.88
2022-11-06T18:19:48.667Z,152572.47
2022-11-06T18:22:21.722Z,152575.03
2022-11-06T18:24:51.798Z,152569.88
2022-11-06T18:27:22.045Z,152566.03
2022-11-06T18:29:52.326Z,152547.91
2022-11-06T18:32:23.882Z,152546.63
2022-11-06T18:34:54.122Z,152532.41
2022-11-06T18:37:27.261Z,152513.00
2022-11-06T18:39:57.282Z,152496.16
2022-11-06T18:42:28.116Z,152506.56
2022-11-06T18:44:58.562Z,152509.13
2022-11-06T18:47:28.956Z,152505.22
2022-11-06T18:50:01.558Z,152491.00
2022-11-06T18:52:56.323Z,152476.81
2022-11-06T18:55:25.100Z,152470.31
2022-11-06T18:57:55.933Z,152454.78
2022-11-06T19:00:28.920Z,152456.06
2022-11-06T19:02:59.810Z,152462.56
2022-11-06T19:05:30.365Z,152438.00
2022-11-06T19:08:04.086Z,152428.94
2022-11-06T19:10:37.504Z,152452.22
2022-11-06T19:13:08.292Z,152462.56
2022-11-06T19:15:39.175Z,152465.13
2022-11-06T19:18:09.650Z,152471.66
2022-11-06T19:20:42.722Z,152474.22
2022-11-06T19:23:18.719Z,152466.38
2022-11-06T19:25:54.570Z,152461.22
2022-11-06T19:28:36.036Z,152466.38
2022-11-06T19:31:06.905Z,152461.22
2022-11-06T19:33:37.274Z,152461.22
2022-11-06T19:36:08.742Z,152465.13
2022-11-06T19:38:41.486Z,152457.38
2022-11-06T19:41:11.526Z,152458.66
2022-11-06T19:43:41.827Z,152453.50
2022-11-06T19:46:11.987Z,152443.16
2022-11-06T19:48:42.208Z,152430.22
2022-11-06T19:51:13.618Z,152418.59
2022-11-06T19:53:46.720Z,152400.47
2022-11-06T19:56:18.132Z,152383.69
2022-11-06T19:58:48.689Z,152368.22
2022-11-06T20:01:19.474Z,152359.16
2022-11-06T20:03:50.555Z,152348.81
2022-11-06T20:06:22.244Z,152344.94
2022-11-06T20:08:55.612Z,152347.50
2022-11-06T20:11:26.327Z,152339.75
2022-11-06T20:13:56.475Z,152334.59
2022-11-06T20:16:27.614Z,152324.25
2022-11-06T20:18:59.772Z,152308.75
2022-11-06T20:21:31.443Z,152299.72
2022-11-06T20:24:04.112Z,152276.44
2022-11-06T20:26:34.523Z,152244.13
2022-11-06T20:29:04.651Z,152210.56
2022-11-06T20:31:35.352Z,152226.06
2022-11-06T20:34:05.522Z,152236.41
2022-11-06T20:36:36.556Z,152218.28
2022-11-06T20:39:09.785Z,152218.28
2022-11-06T20:41:40.180Z,152205.41
2022-11-06T20:44:10.574Z,152173.09
2022-11-06T20:46:41.581Z,152162.75
2022-11-06T20:49:12.670Z,152155.00
2022-11-06T20:52:12.168Z,152156.31
2022-11-06T20:54:40.114Z,152127.91
2022-11-06T20:57:12.716Z,152129.19
2022-11-06T20:59:42.829Z,152103.38
2022-11-06T21:02:13.904Z,152117.56
2022-11-06T21:04:44.410Z,152111.09
2022-11-06T21:07:17.172Z,152109.81
2022-11-06T21:09:50.027Z,152104.63
2022-11-06T21:12:20.108Z,152104.63
2022-11-06T21:14:50.287Z,152104.63
2022-11-06T21:17:20.584Z,152114.97
2022-11-06T21:19:50.681Z,152118.84
2022-11-06T21:22:20.792Z,152129.19
2022-11-06T21:24:53.532Z,152135.63
2022-11-06T21:27:23.721Z,152144.66
2022-11-06T21:29:56.031Z,152153.72
2022-11-06T21:32:26.622Z,152170.53
2022-11-06T21:34:56.704Z,152186.03
2022-11-06T21:37:33.057Z,152191.19
2022-11-06T21:40:06.335Z,152192.47
2022-11-06T21:42:36.398Z,152204.06
2022-11-06T21:45:09.800Z,152211.84
2022-11-06T21:47:44.981Z,152214.41
2022-11-06T21:50:15.867Z,152219.56
2022-11-06T21:52:58.236Z,152228.63
2022-11-06T21:55:43.474Z,152231.22
2022-11-06T21:58:14.350Z,152233.78
2022-11-06T22:00:48.576Z,152228.63
2022-11-06T22:03:19.392Z,152231.22
2022-11-06T22:05:49.467Z,152222.19
2022-11-06T22:08:19.572Z,152226.06
2022-11-06T22:10:52.539Z,152229.94
2022-11-06T22:13:22.662Z,152235.13
2022-11-06T22:15:53.707Z,152241.56
2022-11-06T22:18:23.928Z,152244.13
2022-11-06T22:20:54.621Z,152248.00
2022-11-06T22:23:24.803Z,152255.78
2022-11-06T22:25:57.871Z,152253.16
2022-11-06T22:28:28.467Z,152248.00
2022-11-06T22:31:00.222Z,152254.50
2022-11-06T22:33:31.353Z,152266.09
2022-11-06T22:36:05.563Z,152276.44
2022-11-06T22:38:36.302Z,152280.31
2022-11-06T22:41:13.354Z,152282.88
2022-11-06T22:43:44.758Z,152284.22
2022-11-06T22:46:17.803Z,152277.72
2022-11-06T22:48:49.221Z,152270.00
2022-11-06T22:51:21.484Z,152262.22
2022-11-06T22:53:53.482Z,152259.66
2022-11-06T22:56:28.295Z,152253.16
2022-11-06T22:59:00.484Z,152245.44
2022-11-06T23:01:40.213Z,152244.13
2022-11-06T23:04:15.484Z,152244.13
2022-11-06T23:06:45.657Z,152241.56
2022-11-06T23:09:16.913Z,152248.00
2022-11-06T23:11:50.753Z,152249.28
2022-11-06T23:14:20.772Z,152257.06
2022-11-06T23:17:04.581Z,152264.84
2022-11-06T23:19:36.092Z,152273.84
2022-11-06T23:22:18.537Z,152285.50
2022-11-06T23:24:48.838Z,152286.78
2022-11-06T23:27:21.579Z,152290.66
2022-11-06T23:29:51.932Z,152298.38
2022-11-06T23:32:22.753Z,152306.16
2022-11-06T23:34:54.369Z,152307.44
2022-11-06T23:37:25.027Z,152308.75
2022-11-06T23:39:55.685Z,152311.31
2022-11-06T23:42:28.809Z,152316.50
2022-11-06T23:45:11.594Z,152317.75
2022-11-06T23:47:44.634Z,152316.50
2022-11-06T23:50:15.090Z,152319.09
2022-11-06T23:52:45.953Z,152316.50
2022-11-06T23:55:16.646Z,152316.50
2022-11-06T23:57:49.754Z,152304.88
